sensor_id;sensor_type;location;lat;lon;timestamp;pressure;altitude;pressure_sealevel;temperature;humidity
36138;BME280;67787;50.074;21.904;2024-02-14T00:01:36;99513.37;;;3.67;72.41
36138;BME280;67787;50.074;21.904;2024-02-14T00:04:04;99514.45;;;3.66;72.51
36138;BME280;67787;50.074;21.904;2024-02-14T00:06:35;99511.69;;;3.65;72.42
36138;BME280;67787;50.074;21.904;2024-02-14T00:09:04;99514.69;;;3.69;72.37
36138;BME280;67787;50.074;21.904;2024-02-14T00:11:32;99511.98;;;3.71;72.38
36138;BME280;67787;50.074;21.904;2024-02-14T00:14:00;99514.14;;;3.69;72.30
36138;BME280;67787;50.074;21.904;2024-02-14T00:17:00;99516.77;;;3.70;72.45
36138;BME280;67787;50.074;21.904;2024-02-14T00:19:28;99516.17;;;3.67;72.45
36138;BME280;67787;50.074;21.904;2024-02-14T00:21:56;99520.70;;;3.63;72.53
36138;BME280;67787;50.074;21.904;2024-02-14T00:24:24;99524.73;;;3.63;72.41
36138;BME280;67787;50.074;21.904;2024-02-14T00:26:54;99526.11;;;3.64;72.52
36138;BME280;67787;50.074;21.904;2024-02-14T00:29:23;99527.50;;;3.64;72.34
36138;BME280;67787;50.074;21.904;2024-02-14T00:31:54;99528.71;;;3.65;72.57
36138;BME280;67787;50.074;21.904;2024-02-14T00:34:22;99527.95;;;3.66;72.67
36138;BME280;67787;50.074;21.904;2024-02-14T00:36:50;99530.42;;;3.66;72.79
36138;BME280;67787;50.074;21.904;2024-02-14T00:39:18;99530.16;;;3.68;72.75
36138;BME280;67787;50.074;21.904;2024-02-14T00:41:46;99531.88;;;3.69;72.61
36138;BME280;67787;50.074;21.904;2024-02-14T00:44:15;99531.66;;;3.70;72.58
36138;BME280;67787;50.074;21.904;2024-02-14T00:46:44;99533.15;;;3.72;72.89
36138;BME280;67787;50.074;21.904;2024-02-14T00:49:12;99536.16;;;3.72;72.74
36138;BME280;67787;50.074;21.904;2024-02-14T00:51:41;99530.88;;;3.72;72.75
36138;BME280;67787;50.074;21.904;2024-02-14T00:54:09;99530.44;;;3.75;72.91
36138;BME280;67787;50.074;21.904;2024-02-14T00:56:37;99532.68;;;3.76;72.90
36138;BME280;67787;50.074;21.904;2024-02-14T00:59:05;99535.02;;;3.75;72.91
36138;BME280;67787;50.074;21.904;2024-02-14T01:01:33;99538.59;;;3.72;73.04
36138;BME280;67787;50.074;21.904;2024-02-14T01:04:02;99536.84;;;3.72;73.10
36138;BME280;67787;50.074;21.904;2024-02-14T01:06:30;99539.42;;;3.74;73.35
36138;BME280;67787;50.074;21.904;2024-02-14T01:08:59;99539.60;;;3.73;72.87
36138;BME280;67787;50.074;21.904;2024-02-14T01:11:27;99539.45;;;3.73;72.92
36138;BME280;67787;50.074;21.904;2024-02-14T01:13:56;99541.98;;;3.76;73.18
36138;BME280;67787;50.074;21.904;2024-02-14T01:16:24;99545.82;;;3.77;73.06
36138;BME280;67787;50.074;21.904;2024-02-14T01:18:53;99543.07;;;3.75;73.21
36138;BME280;67787;50.074;21.904;2024-02-14T01:21:21;99541.68;;;3.75;72.96
36138;BME280;67787;50.074;21.904;2024-02-14T01:23:49;99538.84;;;3.75;73.13
36138;BME280;67787;50.074;21.904;2024-02-14T01:26:17;99535.93;;;3.73;73.24
36138;BME280;67787;50.074;21.904;2024-02-14T01:28:45;99537.36;;;3.72;73.20
36138;BME280;67787;50.074;21.904;2024-02-14T01:31:13;99538.80;;;3.72;73.16
36138;BME280;67787;50.074;21.904;2024-02-14T01:33:41;99540.86;;;3.73;73.14
36138;BME280;67787;50.074;21.904;2024-02-14T01:36:09;99539.92;;;3.75;73.45
36138;BME280;67787;50.074;21.904;2024-02-14T01:38:37;99543.94;;;3.75;73.26
36138;BME280;67787;50.074;21.904;2024-02-14T01:41:05;99545.44;;;3.77;73.15
36138;BME280;67787;50.074;21.904;2024-02-14T01:43:33;99546.42;;;3.79;72.99
36138;BME280;67787;50.074;21.904;2024-02-14T01:46:10;99546.94;;;3.79;72.98
36138;BME280;67787;50.074;21.904;2024-02-14T01:48:39;99545.19;;;3.79;73.26
36138;BME280;67787;50.074;21.904;2024-02-14T01:51:09;99544.25;;;3.81;73.14
36138;BME280;67787;50.074;21.904;2024-02-14T01:53:39;99545.58;;;3.83;73.04
36138;BME280;67787;50.074;21.904;2024-02-14T01:56:07;99549.20;;;3.85;73.06
36138;BME280;67787;50.074;21.904;2024-02-14T01:58:36;99552.55;;;3.84;73.25
36138;BME280;67787;50.074;21.904;2024-02-14T02:01:05;99550.53;;;3.87;72.89
36138;BME280;67787;50.074;21.904;2024-02-14T02:03:33;99553.99;;;3.87;73.23
36138;BME280;67787;50.074;21.904;2024-02-14T02:06:06;99555.03;;;3.84;73.18
36138;BME280;67787;50.074;21.904;2024-02-14T02:08:34;99556.67;;;3.82;72.82
36138;BME280;67787;50.074;21.904;2024-02-14T02:11:03;99558.83;;;3.81;72.97
36138;BME280;67787;50.074;21.904;2024-02-14T02:13:31;99560.20;;;3.81;73.01
36138;BME280;67787;50.074;21.904;2024-02-14T02:15:59;99561.92;;;3.82;72.87
36138;BME280;67787;50.074;21.904;2024-02-14T02:18:32;99563.13;;;3.83;72.99
36138;BME280;67787;50.074;21.904;2024-02-14T02:21:01;99566.45;;;3.83;73.01
36138;BME280;67787;50.074;21.904;2024-02-14T02:23:32;99566.25;;;3.84;72.72
36138;BME280;67787;50.074;21.904;2024-02-14T02:26:01;99567.30;;;3.84;73.01
36138;BME280;67787;50.074;21.904;2024-02-14T02:28:29;99567.62;;;3.85;72.75
36138;BME280;67787;50.074;21.904;2024-02-14T02:30:57;99570.39;;;3.86;72.99
36138;BME280;67787;50.074;21.904;2024-02-14T02:33:25;99574.47;;;3.85;72.96
36138;BME280;67787;50.074;21.904;2024-02-14T02:35:54;99578.52;;;3.84;72.87
36138;BME280;67787;50.074;21.904;2024-02-14T02:38:22;99580.48;;;3.84;72.93
36138;BME280;67787;50.074;21.904;2024-02-14T02:40:51;99581.12;;;3.85;72.80
36138;BME280;67787;50.074;21.904;2024-02-14T02:43:18;99579.17;;;3.86;72.97
36138;BME280;67787;50.074;21.904;2024-02-14T02:45:47;99581.33;;;3.84;72.87
36138;BME280;67787;50.074;21.904;2024-02-14T02:48:15;99582.34;;;3.80;72.82
36138;BME280;67787;50.074;21.904;2024-02-14T02:50:43;99589.20;;;3.80;72.88
36138;BME280;67787;50.074;21.904;2024-02-14T02:53:12;99587.27;;;3.80;72.86
36138;BME280;67787;50.074;21.904;2024-02-14T02:55:40;99588.05;;;3.78;72.85
36138;BME280;67787;50.074;21.904;2024-02-14T02:58:09;99584.89;;;3.78;72.83
36138;BME280;67787;50.074;21.904;2024-02-14T03:00:37;99585.92;;;3.79;72.70
36138;BME280;67787;50.074;21.904;2024-02-14T03:03:08;99586.02;;;3.81;72.84
36138;BME280;67787;50.074;21.904;2024-02-14T03:05:36;99589.80;;;3.83;72.83
36138;BME280;67787;50.074;21.904;2024-02-14T03:08:04;99587.11;;;3.84;72.84
36138;BME280;67787;50.074;21.904;2024-02-14T03:10:32;99591.15;;;3.84;72.89
36138;BME280;67787;50.074;21.904;2024-02-14T03:13:00;99592.98;;;3.82;72.57
36138;BME280;67787;50.074;21.904;2024-02-14T03:15:28;99593.52;;;3.82;72.72
36138;BME280;67787;50.074;21.904;2024-02-14T03:17:56;99598.56;;;3.83;72.78
36138;BME280;67787;50.074;21.904;2024-02-14T03:20:24;99598.54;;;3.84;72.76
36138;BME280;67787;50.074;21.904;2024-02-14T03:22:52;99599.38;;;3.85;72.76
36138;BME280;67787;50.074;21.904;2024-02-14T03:25:21;99601.51;;;3.84;73.02
36138;BME280;67787;50.074;21.904;2024-02-14T03:27:51;99602.67;;;3.81;72.83
36138;BME280;67787;50.074;21.904;2024-02-14T03:30:20;99598.92;;;3.78;72.82
36138;BME280;67787;50.074;21.904;2024-02-14T03:32:50;99601.59;;;3.77;72.74
36138;BME280;67787;50.074;21.904;2024-02-14T03:35:19;99607.69;;;3.78;72.85
36138;BME280;67787;50.074;21.904;2024-02-14T03:37:49;99611.10;;;3.76;72.69
36138;BME280;67787;50.074;21.904;2024-02-14T03:40:20;99614.25;;;3.76;72.83
36138;BME280;67787;50.074;21.904;2024-02-14T03:42:48;99615.44;;;3.77;72.73
36138;BME280;67787;50.074;21.904;2024-02-14T03:45:16;99614.76;;;3.77;72.91
36138;BME280;67787;50.074;21.904;2024-02-14T03:47:44;99618.55;;;3.78;72.93
36138;BME280;67787;50.074;21.904;2024-02-14T03:50:12;99618.05;;;3.78;72.92
36138;BME280;67787;50.074;21.904;2024-02-14T03:52:40;99619.77;;;3.79;73.02
36138;BME280;67787;50.074;21.904;2024-02-14T03:55:10;99617.54;;;3.77;72.87
36138;BME280;67787;50.074;21.904;2024-02-14T03:57:41;99618.95;;;3.77;72.87
36138;BME280;67787;50.074;21.904;2024-02-14T04:00:10;99622.63;;;3.78;72.74
36138;BME280;67787;50.074;21.904;2024-02-14T04:02:39;99620.00;;;3.77;72.96
36138;BME280;67787;50.074;21.904;2024-02-14T04:05:08;99619.66;;;3.77;73.01
36138;BME280;67787;50.074;21.904;2024-02-14T04:07:36;99620.36;;;3.77;72.95
36138;BME280;67787;50.074;21.904;2024-02-14T04:10:06;99622.58;;;3.79;72.90
36138;BME280;67787;50.074;21.904;2024-02-14T04:12:34;99622.11;;;3.77;72.88
36138;BME280;67787;50.074;21.904;2024-02-14T04:15:02;99622.41;;;3.73;72.90
36138;BME280;67787;50.074;21.904;2024-02-14T04:17:31;99626.05;;;3.69;72.99
36138;BME280;67787;50.074;21.904;2024-02-14T04:19:59;99627.66;;;3.68;72.80
36138;BME280;67787;50.074;21.904;2024-02-14T04:22:27;99632.98;;;3.67;72.90
36138;BME280;67787;50.074;21.904;2024-02-14T04:24:55;99634.17;;;3.68;72.75
36138;BME280;67787;50.074;21.904;2024-02-14T04:27:23;99632.76;;;3.68;72.89
36138;BME280;67787;50.074;21.904;2024-02-14T04:29:51;99632.23;;;3.68;72.68
36138;BME280;67787;50.074;21.904;2024-02-14T04:32:19;99632.54;;;3.69;72.72
36138;BME280;67787;50.074;21.904;2024-02-14T04:34:47;99632.71;;;3.70;72.91
36138;BME280;67787;50.074;21.904;2024-02-14T04:37:16;99633.91;;;3.70;73.03
36138;BME280;67787;50.074;21.904;2024-02-14T04:39:46;99634.95;;;3.71;72.80
36138;BME280;67787;50.074;21.904;2024-02-14T04:42:14;99640.74;;;3.71;73.04
36138;BME280;67787;50.074;21.904;2024-02-14T04:44:42;99639.88;;;3.70;72.97
36138;BME280;67787;50.074;21.904;2024-02-14T04:47:10;99636.89;;;3.70;73.03
36138;BME280;67787;50.074;21.904;2024-02-14T04:49:38;99642.46;;;3.72;72.93
36138;BME280;67787;50.074;21.904;2024-02-14T04:52:06;99641.23;;;3.72;72.99
36138;BME280;67787;50.074;21.904;2024-02-14T04:54:35;99644.76;;;3.71;72.78
36138;BME280;67787;50.074;21.904;2024-02-14T04:57:03;99645.89;;;3.69;72.88
36138;BME280;67787;50.074;21.904;2024-02-14T04:59:32;99647.66;;;3.68;72.78
36138;BME280;67787;50.074;21.904;2024-02-14T05:02:00;99649.55;;;3.70;72.80
36138;BME280;67787;50.074;21.904;2024-02-14T05:04:28;99655.77;;;3.72;73.00
36138;BME280;67787;50.074;21.904;2024-02-14T05:06:57;99655.08;;;3.72;72.91
36138;BME280;67787;50.074;21.904;2024-02-14T05:09:26;99655.64;;;3.71;72.96
36138;BME280;67787;50.074;21.904;2024-02-14T05:11:54;99654.20;;;3.72;72.87
36138;BME280;67787;50.074;21.904;2024-02-14T05:14:22;99657.52;;;3.72;73.01
36138;BME280;67787;50.074;21.904;2024-02-14T05:16:51;99655.74;;;3.73;72.86
36138;BME280;67787;50.074;21.904;2024-02-14T05:19:19;99657.16;;;3.72;73.03
36138;BME280;67787;50.074;21.904;2024-02-14T05:21:49;99663.78;;;3.74;73.09
36138;BME280;67787;50.074;21.904;2024-02-14T05:24:17;99662.58;;;3.73;72.82
36138;BME280;67787;50.074;21.904;2024-02-14T05:26:45;99660.09;;;3.75;73.07
36138;BME280;67787;50.074;21.904;2024-02-14T05:29:13;99661.64;;;3.75;73.10
36138;BME280;67787;50.074;21.904;2024-02-14T05:31:45;99662.88;;;3.75;73.10
36138;BME280;67787;50.074;21.904;2024-02-14T05:34:14;99665.00;;;3.74;73.01
36138;BME280;67787;50.074;21.904;2024-02-14T05:36:42;99660.28;;;3.74;73.05
36138;BME280;67787;50.074;21.904;2024-02-14T05:39:10;99663.83;;;3.73;73.10
36138;BME280;67787;50.074;21.904;2024-02-14T05:41:38;99667.36;;;3.72;73.08
36138;BME280;67787;50.074;21.904;2024-02-14T05:44:06;99666.83;;;3.72;72.91
36138;BME280;67787;50.074;21.904;2024-02-14T05:46:34;99667.86;;;3.73;73.07
36138;BME280;67787;50.074;21.904;2024-02-14T05:49:02;99673.07;;;3.74;73.01
36138;BME280;67787;50.074;21.904;2024-02-14T05:51:30;99678.30;;;3.75;73.04
36138;BME280;67787;50.074;21.904;2024-02-14T05:53:59;99675.48;;;3.76;73.01
36138;BME280;67787;50.074;21.904;2024-02-14T05:56:28;99677.58;;;3.76;73.12
36138;BME280;67787;50.074;21.904;2024-02-14T05:58:56;99678.61;;;3.77;73.09
36138;BME280;67787;50.074;21.904;2024-02-14T06:01:24;99681.21;;;3.78;73.05
36138;BME280;67787;50.074;21.904;2024-02-14T06:03:52;99682.58;;;3.79;72.94
36138;BME280;67787;50.074;21.904;2024-02-14T06:06:20;99686.61;;;3.78;73.15
36138;BME280;67787;50.074;21.904;2024-02-14T06:08:48;99691.17;;;3.79;73.12
36138;BME280;67787;50.074;21.904;2024-02-14T06:11:16;99690.26;;;3.80;73.25
36138;BME280;67787;50.074;21.904;2024-02-14T06:13:44;99690.27;;;3.79;72.98
36138;BME280;67787;50.074;21.904;2024-02-14T06:16:12;99692.94;;;3.79;73.22
36138;BME280;67787;50.074;21.904;2024-02-14T06:18:40;99696.20;;;3.80;73.23
36138;BME280;67787;50.074;21.904;2024-02-14T06:21:08;99698.96;;;3.82;73.32
36138;BME280;67787;50.074;21.904;2024-02-14T06:23:36;99699.47;;;3.82;73.07
36138;BME280;67787;50.074;21.904;2024-02-14T06:26:05;99701.39;;;3.83;73.28
36138;BME280;67787;50.074;21.904;2024-02-14T06:28:33;99699.46;;;3.82;73.08
36138;BME280;67787;50.074;21.904;2024-02-14T06:31:01;99700.55;;;3.81;73.10
36138;BME280;67787;50.074;21.904;2024-02-14T06:33:29;99702.81;;;3.82;73.17
36138;BME280;67787;50.074;21.904;2024-02-14T06:35:58;99708.38;;;3.83;73.28
36138;BME280;67787;50.074;21.904;2024-02-14T06:38:26;99708.10;;;3.86;73.28
36138;BME280;67787;50.074;21.904;2024-02-14T06:40:54;99703.55;;;3.86;73.20
36138;BME280;67787;50.074;21.904;2024-02-14T06:43:22;99708.23;;;3.87;73.05
36138;BME280;67787;50.074;21.904;2024-02-14T06:45:49;99709.06;;;3.89;73.24
36138;BME280;67787;50.074;21.904;2024-02-14T06:48:17;99710.64;;;3.89;73.21
36138;BME280;67787;50.074;21.904;2024-02-14T06:50:52;99709.24;;;3.88;73.31
36138;BME280;67787;50.074;21.904;2024-02-14T06:53:20;99710.16;;;3.87;73.21
36138;BME280;67787;50.074;21.904;2024-02-14T06:55:48;99709.90;;;3.90;73.30
36138;BME280;67787;50.074;21.904;2024-02-14T06:58:16;99715.46;;;3.92;73.33
36138;BME280;67787;50.074;21.904;2024-02-14T07:00:44;99719.28;;;3.93;73.36
36138;BME280;67787;50.074;21.904;2024-02-14T07:03:12;99722.24;;;3.93;73.50
36138;BME280;67787;50.074;21.904;2024-02-14T07:05:40;99720.29;;;3.94;73.32
36138;BME280;67787;50.074;21.904;2024-02-14T07:08:09;99720.11;;;3.94;73.52
36138;BME280;67787;50.074;21.904;2024-02-14T07:10:37;99724.08;;;3.96;73.49
36138;BME280;67787;50.074;21.904;2024-02-14T07:13:05;99721.87;;;3.99;73.44
36138;BME280;67787;50.074;21.904;2024-02-14T07:15:33;99721.95;;;4.02;73.43
36138;BME280;67787;50.074;21.904;2024-02-14T07:18:01;99718.59;;;4.03;73.39
36138;BME280;67787;50.074;21.904;2024-02-14T07:20:30;99719.34;;;4.06;73.42
36138;BME280;67787;50.074;21.904;2024-02-14T07:22:58;99720.14;;;4.09;73.40
36138;BME280;67787;50.074;21.904;2024-02-14T07:25:25;99722.73;;;4.10;73.31
36138;BME280;67787;50.074;21.904;2024-02-14T07:27:54;99719.91;;;4.10;73.37
36138;BME280;67787;50.074;21.904;2024-02-14T07:30:22;99721.17;;;4.09;73.51
36138;BME280;67787;50.074;21.904;2024-02-14T07:32:50;99722.36;;;4.10;73.60
36138;BME280;67787;50.074;21.904;2024-02-14T07:35:19;99717.89;;;4.12;73.66
36138;BME280;67787;50.074;21.904;2024-02-14T07:37:46;99722.17;;;4.15;73.54
36138;BME280;67787;50.074;21.904;2024-02-14T07:40:16;99723.46;;;4.19;73.60
36138;BME280;67787;50.074;21.904;2024-02-14T07:42:45;99724.80;;;4.21;73.57
36138;BME280;67787;50.074;21.904;2024-02-14T07:45:13;99726.42;;;4.25;73.60
36138;BME280;67787;50.074;21.904;2024-02-14T07:47:41;99728.05;;;4.28;73.63
36138;BME280;67787;50.074;21.904;2024-02-14T07:50:09;99730.14;;;4.29;73.53
36138;BME280;67787;50.074;21.904;2024-02-14T07:52:44;99729.39;;;4.29;73.61
36138;BME280;67787;50.074;21.904;2024-02-14T07:55:12;99731.95;;;4.32;73.62
36138;BME280;67787;50.074;21.904;2024-02-14T07:57:41;99729.93;;;4.34;73.64
36138;BME280;67787;50.074;21.904;2024-02-14T08:00:10;99730.52;;;4.38;73.58
36138;BME280;67787;50.074;21.904;2024-02-14T08:02:38;99728.73;;;4.39;73.58
36138;BME280;67787;50.074;21.904;2024-02-14T08:05:06;99727.05;;;4.42;73.68
36138;BME280;67787;50.074;21.904;2024-02-14T08:07:34;99731.45;;;4.46;73.56
36138;BME280;67787;50.074;21.904;2024-02-14T08:10:02;99731.20;;;4.48;73.63
36138;BME280;67787;50.074;21.904;2024-02-14T08:12:30;99732.33;;;4.51;73.64
36138;BME280;67787;50.074;21.904;2024-02-14T08:14:58;99736.55;;;4.55;73.59
36138;BME280;67787;50.074;21.904;2024-02-14T08:17:26;99736.12;;;4.57;73.69
36138;BME280;67787;50.074;21.904;2024-02-14T08:19:54;99738.89;;;4.63;73.73
36138;BME280;67787;50.074;21.904;2024-02-14T08:22:22;99740.73;;;4.71;73.76
36138;BME280;67787;50.074;21.904;2024-02-14T08:24:50;99742.05;;;4.73;73.60
36138;BME280;67787;50.074;21.904;2024-02-14T08:27:18;99741.40;;;4.71;73.62
36138;BME280;67787;50.074;21.904;2024-02-14T08:29:46;99741.78;;;4.75;73.66
36138;BME280;67787;50.074;21.904;2024-02-14T08:32:14;99742.21;;;4.83;73.79
36138;BME280;67787;50.074;21.904;2024-02-14T08:34:42;99742.23;;;4.87;73.60
36138;BME280;67787;50.074;21.904;2024-02-14T08:37:10;99739.16;;;4.89;73.60
36138;BME280;67787;50.074;21.904;2024-02-14T08:39:38;99743.30;;;4.91;73.55
36138;BME280;67787;50.074;21.904;2024-02-14T08:42:06;99745.63;;;4.99;73.67
36138;BME280;67787;50.074;21.904;2024-02-14T08:44:35;99741.68;;;5.06;73.62
36138;BME280;67787;50.074;21.904;2024-02-14T08:47:06;99741.65;;;5.11;73.58
36138;BME280;67787;50.074;21.904;2024-02-14T08:49:34;99741.69;;;5.14;73.68
36138;BME280;67787;50.074;21.904;2024-02-14T08:52:02;99742.55;;;5.19;73.55
36138;BME280;67787;50.074;21.904;2024-02-14T08:54:30;99740.36;;;5.26;73.71
36138;BME280;67787;50.074;21.904;2024-02-14T08:57:00;99737.09;;;5.33;73.63
36138;BME280;67787;50.074;21.904;2024-02-14T08:59:28;99741.32;;;5.37;73.62
36138;BME280;67787;50.074;21.904;2024-02-14T09:01:56;99739.73;;;5.38;73.68
36138;BME280;67787;50.074;21.904;2024-02-14T09:04:24;99744.70;;;5.41;73.65
36138;BME280;67787;50.074;21.904;2024-02-14T09:06:52;99742.98;;;5.44;73.76
36138;BME280;67787;50.074;21.904;2024-02-14T09:09:20;99744.06;;;5.48;73.64
36138;BME280;67787;50.074;21.904;2024-02-14T09:11:48;99744.27;;;5.47;73.57
36138;BME280;67787;50.074;21.904;2024-02-14T09:14:16;99740.34;;;5.49;73.57
36138;BME280;67787;50.074;21.904;2024-02-14T09:16:43;99738.82;;;5.51;73.53
36138;BME280;67787;50.074;21.904;2024-02-14T09:19:13;99745.23;;;5.54;73.43
36138;BME280;67787;50.074;21.904;2024-02-14T09:21:41;99746.20;;;5.56;73.52
36138;BME280;67787;50.074;21.904;2024-02-14T09:24:09;99745.70;;;5.59;73.47
36138;BME280;67787;50.074;21.904;2024-02-14T09:26:37;99751.51;;;5.64;73.50
36138;BME280;67787;50.074;21.904;2024-02-14T09:29:06;99752.69;;;5.69;73.30
36138;BME280;67787;50.074;21.904;2024-02-14T09:31:33;99753.11;;;5.71;73.47
36138;BME280;67787;50.074;21.904;2024-02-14T09:34:01;99751.54;;;5.75;73.34
36138;BME280;67787;50.074;21.904;2024-02-14T09:36:29;99751.32;;;5.77;73.37
36138;BME280;67787;50.074;21.904;2024-02-14T09:38:57;99754.05;;;5.83;73.38
36138;BME280;67787;50.074;21.904;2024-02-14T09:41:36;99755.80;;;5.88;73.25
36138;BME280;67787;50.074;21.904;2024-02-14T09:44:04;99753.02;;;5.91;73.31
36138;BME280;67787;50.074;21.904;2024-02-14T09:46:35;99755.85;;;5.95;73.11
36138;BME280;67787;50.074;21.904;2024-02-14T09:49:04;99757.78;;;5.94;73.08
36138;BME280;67787;50.074;21.904;2024-02-14T09:51:33;99753.21;;;5.95;72.91
36138;BME280;67787;50.074;21.904;2024-02-14T09:54:02;99751.27;;;5.99;72.91
36138;BME280;67787;50.074;21.904;2024-02-14T09:56:31;99755.88;;;6.03;72.93
36138;BME280;67787;50.074;21.904;2024-02-14T09:59:01;99752.23;;;6.06;72.76
36138;BME280;67787;50.074;21.904;2024-02-14T10:01:31;99748.09;;;6.08;72.54
36138;BME280;67787;50.074;21.904;2024-02-14T10:03:58;99745.19;;;6.10;72.57
36138;BME280;67787;50.074;21.904;2024-02-14T10:06:26;99742.76;;;6.09;72.03
36138;BME280;67787;50.074;21.904;2024-02-14T10:08:55;99741.69;;;6.10;71.97
36138;BME280;67787;50.074;21.904;2024-02-14T10:11:31;99740.72;;;6.07;71.55
36138;BME280;67787;50.074;21.904;2024-02-14T10:14:00;99739.79;;;5.96;70.50
36138;BME280;67787;50.074;21.904;2024-02-14T10:16:32;99742.17;;;5.94;70.28
36138;BME280;67787;50.074;21.904;2024-02-14T10:19:00;99742.20;;;5.89;69.75
36138;BME280;67787;50.074;21.904;2024-02-14T10:21:29;99741.46;;;5.89;70.05
36138;BME280;67787;50.074;21.904;2024-02-14T10:24:00;99737.88;;;5.95;70.28
36138;BME280;67787;50.074;21.904;2024-02-14T10:26:29;99737.66;;;6.01;70.16
36138;BME280;67787;50.074;21.904;2024-02-14T10:28:57;99739.33;;;6.07;70.54
36138;BME280;67787;50.074;21.904;2024-02-14T10:31:26;99738.50;;;6.10;70.11
36138;BME280;67787;50.074;21.904;2024-02-14T10:33:55;99739.11;;;6.12;70.35
36138;BME280;67787;50.074;21.904;2024-02-14T10:36:24;99737.03;;;6.11;69.84
36138;BME280;67787;50.074;21.904;2024-02-14T10:38:53;99731.54;;;6.16;69.93
36138;BME280;67787;50.074;21.904;2024-02-14T10:41:22;99730.55;;;6.23;69.90
36138;BME280;67787;50.074;21.904;2024-02-14T10:43:50;99731.65;;;6.22;69.46
36138;BME280;67787;50.074;21.904;2024-02-14T10:46:22;99733.02;;;6.23;69.44
36138;BME280;67787;50.074;21.904;2024-02-14T10:48:54;99737.02;;;6.24;69.43
36138;BME280;67787;50.074;21.904;2024-02-14T10:51:29;99731.05;;;6.23;68.86
36138;BME280;67787;50.074;21.904;2024-02-14T10:53:58;99729.01;;;6.22;68.96
36138;BME280;67787;50.074;21.904;2024-02-14T10:56:28;99729.60;;;6.24;69.12
36138;BME280;67787;50.074;21.904;2024-02-14T10:59:01;99730.27;;;6.29;68.98
36138;BME280;67787;50.074;21.904;2024-02-14T11:03:34;99729.28;;;6.39;68.70
36138;BME280;67787;50.074;21.904;2024-02-14T11:06:03;99726.52;;;6.38;68.73
36138;BME280;67787;50.074;21.904;2024-02-14T11:08:32;99720.52;;;6.38;68.60
36138;BME280;67787;50.074;21.904;2024-02-14T11:11:03;99721.58;;;6.39;68.26
36138;BME280;67787;50.074;21.904;2024-02-14T11:13:35;99719.73;;;6.40;68.55
36138;BME280;67787;50.074;21.904;2024-02-14T11:16:03;99719.52;;;6.41;68.66
36138;BME280;67787;50.074;21.904;2024-02-14T11:18:34;99717.52;;;6.43;68.34
36138;BME280;67787;50.074;21.904;2024-02-14T11:21:04;99711.90;;;6.46;68.22
36138;BME280;67787;50.074;21.904;2024-02-14T11:23:32;99709.55;;;6.52;68.26
36138;BME280;67787;50.074;21.904;2024-02-14T11:26:01;99706.73;;;6.51;68.30
36138;BME280;67787;50.074;21.904;2024-02-14T11:28:30;99708.27;;;6.49;67.67
36138;BME280;67787;50.074;21.904;2024-02-14T11:31:00;99709.25;;;6.50;67.88
36138;BME280;67787;50.074;21.904;2024-02-14T11:33:30;99706.32;;;6.52;67.66
36138;BME280;67787;50.074;21.904;2024-02-14T11:36:07;99703.46;;;6.53;67.80
36138;BME280;67787;50.074;21.904;2024-02-14T11:38:35;99703.34;;;6.57;67.68
36138;BME280;67787;50.074;21.904;2024-02-14T11:41:03;99705.20;;;6.58;67.52
36138;BME280;67787;50.074;21.904;2024-02-14T11:43:31;99702.05;;;6.62;67.64
36138;BME280;67787;50.074;21.904;2024-02-14T11:46:00;99697.70;;;6.64;67.31
36138;BME280;67787;50.074;21.904;2024-02-14T11:48:28;99700.39;;;6.63;67.35
36138;BME280;67787;50.074;21.904;2024-02-14T11:50:56;99696.98;;;6.64;67.21
36138;BME280;67787;50.074;21.904;2024-02-14T11:53:24;99696.63;;;6.61;66.58
36138;BME280;67787;50.074;21.904;2024-02-14T11:55:52;99697.58;;;6.59;66.64
36138;BME280;67787;50.074;21.904;2024-02-14T11:58:20;99703.30;;;6.57;66.65
36138;BME280;67787;50.074;21.904;2024-02-14T12:00:48;99703.31;;;6.57;66.36
36138;BME280;67787;50.074;21.904;2024-02-14T12:03:20;99702.88;;;6.55;66.48
36138;BME280;67787;50.074;21.904;2024-02-14T12:05:51;99704.27;;;6.55;66.41
36138;BME280;67787;50.074;21.904;2024-02-14T12:08:21;99710.23;;;6.56;66.34
36138;BME280;67787;50.074;21.904;2024-02-14T12:10:50;99709.71;;;6.56;66.01
36138;BME280;67787;50.074;21.904;2024-02-14T12:13:20;99708.96;;;6.57;66.16
36138;BME280;67787;50.074;21.904;2024-02-14T12:15:50;99709.40;;;6.59;66.26
36138;BME280;67787;50.074;21.904;2024-02-14T12:18:20;99714.08;;;6.60;66.29
36138;BME280;67787;50.074;21.904;2024-02-14T12:20:49;99714.15;;;6.59;66.15
36138;BME280;67787;50.074;21.904;2024-02-14T12:23:23;99711.15;;;6.59;66.16
36138;BME280;67787;50.074;21.904;2024-02-14T12:26:01;99712.92;;;6.55;66.04
36138;BME280;67787;50.074;21.904;2024-02-14T12:28:31;99709.45;;;6.50;66.06
36138;BME280;67787;50.074;21.904;2024-02-14T12:30:59;99713.23;;;6.48;65.71
36138;BME280;67787;50.074;21.904;2024-02-14T12:33:27;99711.14;;;6.48;65.79
36138;BME280;67787;50.074;21.904;2024-02-14T12:35:56;99712.62;;;6.46;65.80
36138;BME280;67787;50.074;21.904;2024-02-14T12:38:25;99713.52;;;6.45;65.69
36138;BME280;67787;50.074;21.904;2024-02-14T12:40:53;99709.75;;;6.44;65.77
36138;BME280;67787;50.074;21.904;2024-02-14T12:43:22;99709.42;;;6.43;65.83
36138;BME280;67787;50.074;21.904;2024-02-14T12:45:50;99709.63;;;6.42;65.38
36138;BME280;67787;50.074;21.904;2024-02-14T12:48:24;99709.27;;;6.42;65.49
36138;BME280;67787;50.074;21.904;2024-02-14T12:50:56;99710.09;;;6.43;65.56
36138;BME280;67787;50.074;21.904;2024-02-14T12:53:26;99707.36;;;6.46;65.22
36138;BME280;67787;50.074;21.904;2024-02-14T12:55:54;99703.37;;;6.48;65.46
36138;BME280;67787;50.074;21.904;2024-02-14T12:58:22;99705.30;;;6.52;65.35
36138;BME280;67787;50.074;21.904;2024-02-14T13:00:50;99706.17;;;6.56;65.38
36138;BME280;67787;50.074;21.904;2024-02-14T13:03:19;99704.33;;;6.58;65.42
36138;BME280;67787;50.074;21.904;2024-02-14T13:05:48;99702.77;;;6.57;65.39
36138;BME280;67787;50.074;21.904;2024-02-14T13:08:16;99701.30;;;6.55;65.41
36138;BME280;67787;50.074;21.904;2024-02-14T13:10:44;99700.25;;;6.54;65.19